Airfield :
LOGIN :

Register | Disclaimer

   EN    FR    IT 

 










Legend :    VFR   Marginal VFR   IFR   Intensive IFR   Very Intensive IFR
Visi :
Ceiling :
>= 8 km
>= 3000ft
5 to 8 km
1000 to 3000 ft
1500m to 5 km
500 to 1000 ft
800 to 1500m
200 to 500 ft
< 800m
< 200 ft
Symbols :   Thunderstorms  Fog  Heavy snow  Heavy precipitations  Wind > 20 kt
SIGMETs :     Misc.  Thunderstorms  Icing  Turbulence  Mountain Waves  Volcanic Ashes






- Airport Elevation : 512 ft
- IATA code : URO


LFOP - Rouen Vallée de Seine

CURRENT METAR :
  • 040000Z AUTO 27003KT CAVOK 10/10 Q1018

EXPIRED METARs :
  • 032330Z AUTO 28003KT CAVOK 10/10 Q1018
  • 032300Z AUTO 28004KT CAVOK 11/10 Q1018
  • 032230Z AUTO 30004KT CAVOK 12/10 Q1018
  • 032200Z AUTO 30005KT CAVOK 13/10 Q1018
  • 032130Z AUTO 31004KT CAVOK 14/10 Q1018

TAF TAF LFOP
Valid from the 03 at 18:00 until the 04 at 18:00 UTC


031700Z 0318/0418 34010KT 9999 SCT030
BECMG 0320/0323 VRB02KT
TEMPO 0403/0406 1200 BCFG
BECMG 0412/0415 25010KT
ATIS : +33 2 35 80 80 34
Met : +33 2 32 86 52 80



MET'MAP, your aeronautical weather chart ! - Copyright ORBIFLY December 2007 - Disclaimer

ORBIFLY MET'MAP TEAM :

Programming & Development : Alexandra Zaïnal
Concept & original design : Baudouin d'Aumeries
Assistance for programming : Marc-Olivier Méhu
Technical & hardware support : Manuel Goepfert

Contact : metmap@orbifly.com




SOURCES & CREDITS :

   NOAA